Time,TemperatureF,DewpointF,PressureIn,WindDirection,WindDirectionDegrees,WindSpeedMPH,WindSpeedGustMPH,Humidity,HourlyPrecipIn,Conditions,Clouds,dailyrainin,SolarRadiationWatts/m^2,SoftwareType,DateUTC
2013-01-11 01:00:00,14.0,13.0,29.61,NW,321,13.0,-999.0,95,-99.99,,,-99.99,0.040000,,2013-01-11 08:00:00,
2013-01-11 01:53:00,14.0,13.0,29.61,NW,321,13.0,-999.0,95,-99.99,,,-99.99,0.040000,,2013-01-11 08:53:00,
2013-01-11 02:00:00,14.0,13.0,29.63,NNW,341,12.0,-999.0,95,-99.99,,,-99.99,0.040000,,2013-01-11 09:00:00,
2013-01-11 02:52:00,14.0,13.0,29.63,NNW,341,12.0,-999.0,95,-99.99,,,-99.99,0.040000,,2013-01-11 09:52:00,
2013-01-11 04:00:00,13.0,11.0,29.62,North,359,10.0,-999.0,94,-99.99,,,-99.99,0.040000,,2013-01-11 11:00:00,
2013-01-11 04:53:00,13.0,11.0,29.62,North,359,10.0,-999.0,94,-99.99,,,-99.99,0.040000,,2013-01-11 11:53:00,
2013-01-11 05:00:00,13.0,11.0,29.62,North,357,8.0,-999.0,94,-99.99,,,-99.99,0.060000,,2013-01-11 12:00:00,
2013-01-11 05:53:00,13.0,11.0,29.62,North,357,8.0,-999.0,94,-99.99,,,-99.99,0.060000,,2013-01-11 12:53:00,
2013-01-11 06:00:00,12.0,10.0,29.64,North,349,10.0,-999.0,93,-99.99,,,-99.99,0.050000,,2013-01-11 13:00:00,
2013-01-11 06:53:00,12.0,10.0,29.64,North,349,10.0,-999.0,93,-99.99,,,-99.99,0.050000,,2013-01-11 13:53:00,
2013-01-11 07:00:00,11.0,9.0,29.66,NNW,344,10.0,-999.0,93,-99.99,,,-99.99,0.030000,,2013-01-11 14:00:00,
2013-01-11 07:53:00,11.0,9.0,29.66,NNW,344,10.0,-999.0,93,-99.99,,,-99.99,0.030000,,2013-01-11 14:53:00,
2013-01-11 09:00:00,9.0,7.0,29.68,NNW,347,14.0,-999.0,92,-99.99,,,-99.99,44.320000,,2013-01-11 16:00:00,
2013-01-11 09:53:00,9.0,7.0,29.68,NNW,347,14.0,-999.0,92,-99.99,,,-99.99,44.320000,,2013-01-11 16:53:00,
2013-01-11 10:00:00,9.0,7.0,29.66,North,352,13.0,-999.0,92,-99.99,,,-99.99,95.800003,,2013-01-11 17:00:00,
2013-01-11 10:53:00,9.0,7.0,29.66,North,352,13.0,-999.0,92,-99.99,,,-99.99,95.800003,,2013-01-11 17:53:00,
2013-01-11 11:00:00,8.0,6.0,29.72,North,5,14.0,-999.0,91,-99.99,,,-99.99,95.000000,,2013-01-11 18:00:00,
2013-01-11 11:53:00,8.0,6.0,29.72,North,5,14.0,-999.0,91,-99.99,,,-99.99,95.000000,,2013-01-11 18:53:00,
2013-01-11 12:00:00,8.0,6.0,29.72,North,0,12.0,-999.0,91,-99.99,,,-99.99,112.599998,,2013-01-11 19:00:00,
2013-01-11 12:53:00,8.0,6.0,29.72,North,0,12.0,-999.0,91,-99.99,,,-99.99,112.599998,,2013-01-11 19:53:00,
2013-01-11 13:00:00,7.0,5.0,29.70,North,1,15.0,-999.0,91,-99.99,,,-99.99,129.300003,,2013-01-11 20:00:00,
2013-01-11 13:53:00,7.0,5.0,29.70,North,1,15.0,-999.0,91,-99.99,,,-99.99,129.300003,,2013-01-11 20:53:00,
2013-01-11 14:00:00,5.0,3.0,29.73,North,355,18.0,-999.0,90,-99.99,,,-99.99,152.100006,,2013-01-11 21:00:00,
2013-01-11 14:53:00,5.0,3.0,29.73,North,355,18.0,-999.0,90,-99.99,,,-99.99,152.100006,,2013-01-11 21:53:00,
2013-01-11 15:00:00,5.0,3.0,29.76,North,351,19.0,-999.0,90,-99.99,,,-99.99,114.500000,,2013-01-11 22:00:00,
2013-01-11 15:53:00,5.0,3.0,29.76,North,351,19.0,-999.0,90,-99.99,,,-99.99,114.500000,,2013-01-11 22:53:00,
2013-01-11 16:00:00,3.0,1.0,29.78,NNW,343,18.0,-999.0,89,-99.99,,,-99.99,39.730000,,2013-01-11 23:00:00,
2013-01-11 16:53:00,3.0,1.0,29.78,NNW,343,18.0,-999.0,89,-99.99,,,-99.99,39.730000,,2013-01-11 23:53:00,
2013-01-11 17:00:00,3.0,0.0,29.79,NNW,344,20.0,-999.0,89,-99.99,,,-99.99,4.920000,,2013-01-12 00:00:00,
2013-01-11 17:53:00,3.0,0.0,29.79,NNW,344,20.0,-999.0,89,-99.99,,,-99.99,4.920000,,2013-01-12 00:53:00,
2013-01-11 18:00:00,3.0,1.0,29.82,NNW,343,20.0,-999.0,89,-99.99,,,-99.99,0.050000,,2013-01-12 01:00:00,
2013-01-11 18:53:00,3.0,1.0,29.82,NNW,343,20.0,-999.0,89,-99.99,,,-99.99,0.050000,,2013-01-12 01:53:00,
2013-01-11 19:00:00,2.0,0.0,29.85,NNW,346,21.0,-999.0,89,-99.99,,,-99.99,0.050000,,2013-01-12 02:00:00,
2013-01-11 19:53:00,2.0,0.0,29.85,NNW,346,21.0,-999.0,89,-99.99,,,-99.99,0.050000,,2013-01-12 02:53:00,
2013-01-11 20:00:00,2.0,-1.0,29.84,NNW,340,24.0,-999.0,88,-99.99,,,-99.99,0.040000,,2013-01-12 03:00:00,
2013-01-11 20:53:00,2.0,-1.0,29.84,NNW,340,24.0,-999.0,88,-99.99,,,-99.99,0.040000,,2013-01-12 03:53:00,
2013-01-11 21:00:00,1.0,-1.0,29.88,NNW,328,22.0,-999.0,88,-99.99,,,-99.99,0.070000,,2013-01-12 04:00:00,
2013-01-11 21:52:00,1.0,-1.0,29.88,NNW,328,22.0,-999.0,88,-99.99,,,-99.99,0.070000,,2013-01-12 04:52:00,
2013-01-11 22:00:00,1.0,-2.0,29.89,NW,324,22.0,-999.0,88,-99.99,,,-99.99,0.060000,,2013-01-12 05:00:00,
2013-01-11 22:52:00,1.0,-2.0,29.89,NW,324,22.0,-999.0,88,-99.99,,,-99.99,0.060000,,2013-01-12 05:52:00,
2013-01-11 23:00:00,1.0,-2.0,29.91,NW,322,24.0,-999.0,88,-99.99,,,-99.99,0.060000,,2013-01-12 06:00:00,
2013-01-11 23:53:00,1.0,-2.0,29.91,NW,322,24.0,-999.0,88,-99.99,,,-99.99,0.060000,,2013-01-12 06:53:00,